Time;durP1;ratioP1;P1;durP2;ratioP2;P2;SDS_P1;SDS_P2;PMS_P1;PMS_P2;Temp;Humidity;BMP_temperature;BMP_pressure;BME280_temperature;BME280_humidity;BME280_pressure;Samples;Min_cycle;Max_cycle;Signal;HPM_P1;HPM_P2
2023/10/09 00:03:04;;;;;;;2.43;1.90;;;10.50;99.90;10.40;101174.00;;;;5010417;27;87660;-64
2023/10/09 00:08:30;;;;;;;6.57;1.70;;;10.40;99.90;10.40;101174.00;;;;5005230;27;88079;-64
2023/10/09 00:11:13;;;;;;;1.93;1.73;;;10.40;99.90;10.30;101144.00;;;;5008527;27;88821;-66
2023/10/09 00:13:57;;;;;;;2.47;1.90;;;10.40;99.90;10.30;101147.00;;;;4991444;27;89504;-64
2023/10/09 00:16:33;;;;;;;2.17;1.70;;;10.40;99.90;10.30;101158.00;;;;5019159;27;89238;-65
2023/10/09 00:19:14;;;;;;;2.70;1.47;;;10.40;99.90;10.30;101164.00;;;;4990272;27;88885;-65
2023/10/09 00:21:41;;;;;;;2.93;2.03;;;10.40;99.90;10.30;101167.00;;;;5003983;27;88506;-65
2023/10/09 00:24:13;;;;;;;2.23;2.03;;;10.40;99.90;10.40;101151.00;;;;5006747;27;87292;-64
2023/10/09 00:26:45;;;;;;;5.13;2.27;;;10.40;99.90;10.40;101146.00;;;;5008527;27;88112;-66
2023/10/09 00:29:21;;;;;;;2.13;1.90;;;10.40;99.90;10.40;101155.00;;;;4982187;27;88991;-66
2023/10/09 00:31:54;;;;;;;1.90;1.57;;;10.50;99.90;10.40;101133.00;;;;4985880;27;89505;-66
2023/10/09 00:34:22;;;;;;;2.77;1.77;;;10.40;99.90;10.50;101136.00;;;;5005016;27;88170;-68
2023/10/09 00:36:51;;;;;;;2.40;2.20;;;10.50;99.90;10.50;101129.00;;;;5008089;27;87851;-67
2023/10/09 00:39:40;;;;;;;3.10;2.57;;;10.50;99.90;10.50;101132.00;;;;5004528;27;89646;-67
2023/10/09 00:42:07;;;;;;;5.63;1.90;;;10.50;99.90;10.50;101114.00;;;;4987124;27;87987;-66
2023/10/09 00:44:41;;;;;;;3.03;1.60;;;10.50;99.90;10.50;101101.00;;;;5004480;27;87810;-66
2023/10/09 00:47:20;;;;;;;2.80;2.00;;;10.50;99.90;10.50;101123.00;;;;5002547;27;88216;-66
2023/10/09 00:49:58;;;;;;;9.23;2.63;;;10.50;99.90;10.50;101139.00;;;;4989416;27;89053;-66
2023/10/09 00:52:31;;;;;;;1.90;1.80;;;10.50;99.90;10.50;101161.00;;;;5006902;27;87913;-67
2023/10/09 00:55:04;;;;;;;2.73;2.53;;;10.60;99.90;10.60;101197.00;;;;4983191;27;88812;-68
2023/10/09 00:57:33;;;;;;;2.03;1.83;;;10.50;99.90;10.60;101182.00;;;;4991643;27;89561;-68
2023/10/09 01:00:00;;;;;;;3.73;1.80;;;10.60;99.90;10.60;101163.00;;;;5003198;27;88695;-68
2023/10/09 01:02:42;;;;;;;2.83;2.60;;;10.70;99.90;10.60;101160.00;;;;5002221;27;88481;-68
2023/10/09 01:05:19;;;;;;;3.17;1.87;;;10.70;99.90;10.60;101158.00;;;;5004694;27;87788;-67
2023/10/09 01:07:47;;;;;;;4.03;2.40;;;10.70;99.90;10.60;101167.00;;;;5007975;27;88727;-67
2023/10/09 01:10:16;;;;;;;2.43;2.23;;;10.60;99.90;10.60;101148.00;;;;4993593;27;87774;-67
2023/10/09 01:12:44;;;;;;;1.67;1.47;;;10.70;99.90;10.60;101130.00;;;;5007235;27;87802;-66
2023/10/09 01:15:35;;;;;;;3.67;1.70;;;10.70;99.90;10.60;101131.00;;;;5003409;27;87761;-66
2023/10/09 01:17:58;;;;;;;1.50;1.40;;;10.60;99.90;10.60;101134.00;;;;5008231;27;87983;-64
2023/10/09 01:20:30;;;;;;;2.00;1.83;;;10.60;99.90;10.60;101131.00;;;;5003977;27;87973;-64
2023/10/09 01:22:55;;;;;;;3.37;2.07;;;10.60;99.90;10.60;101122.00;;;;5007962;27;89762;-65
2023/10/09 01:25:21;;;;;;;2.07;1.87;;;10.60;99.90;10.60;101114.00;;;;5004276;27;88216;-65
2023/10/09 01:27:47;;;;;;;4.33;2.70;;;10.60;99.90;10.50;101079.00;;;;5004445;27;88053;-66
2023/10/09 01:30:13;;;;;;;1.97;1.73;;;10.60;99.90;10.50;101091.00;;;;5004922;27;118509;-66
2023/10/09 01:32:40;;;;;;;8.67;2.00;;;10.60;99.90;10.60;101086.00;;;;5011996;27;88830;-66
2023/10/09 01:35:19;;;;;;;2.70;1.40;;;10.60;99.90;10.50;101072.00;;;;5009429;27;87799;-65
2023/10/09 01:37:49;;;;;;;1.83;1.43;;;10.60;99.90;10.50;101066.00;;;;4991378;27;88103;-65
2023/10/09 01:40:36;;;;;;;2.27;1.67;;;10.60;99.90;10.50;101044.00;;;;5004748;27;88443;-65
2023/10/09 01:43:03;;;;;;;4.83;2.30;;;10.60;99.90;10.50;101030.00;;;;5005448;27;88149;-66
2023/10/09 01:45:29;;;;;;;2.30;2.10;;;10.50;99.90;10.50;101030.00;;;;5005277;27;87659;-65
2023/10/09 01:47:56;;;;;;;1.67;1.57;;;10.50;99.90;10.50;101039.00;;;;5008515;27;88873;-66
2023/10/09 01:50:30;;;;;;;3.17;2.03;;;10.50;99.90;10.50;101045.00;;;;4993597;27;88643;-65
2023/10/09 01:53:00;;;;;;;4.30;2.10;;;10.50;99.90;10.50;101016.00;;;;5012576;27;88795;-65
2023/10/09 01:55:29;;;;;;;2.20;1.97;;;10.50;99.90;10.50;100996.00;;;;5004520;27;88350;-66
2023/10/09 01:58:02;;;;;;;3.43;2.87;;;10.50;99.90;10.50;100989.00;;;;5005327;27;87952;-65
2023/10/09 02:00:29;;;;;;;2.10;1.90;;;10.50;99.90;10.50;100995.00;;;;5004455;27;89387;-65
2023/10/09 02:02:54;;;;;;;2.13;1.93;;;10.50;99.90;10.50;100990.00;;;;5007723;27;87960;-65
2023/10/09 02:07:51;;;;;;;2.03;1.90;;;10.50;99.90;10.50;100992.00;;;;5006724;27;104733;-65
2023/10/09 02:12:57;;;;;;;2.17;1.67;;;10.50;99.90;10.50;100969.00;;;;5001781;27;88846;-65
2023/10/09 02:21:12;;;;;;;2.17;1.57;;;10.50;99.90;10.50;100951.00;;;;5003806;27;88183;-64
2023/10/09 02:26:06;;;;;;;2.57;1.53;;;10.60;99.90;10.50;100946.00;;;;5006905;27;88109;-64
2023/10/09 02:28:33;;;;;;;1.70;1.60;;;10.50;99.90;10.60;100927.00;;;;5006198;27;87901;-64
2023/10/09 02:31:18;;;;;;;1.80;1.40;;;10.60;99.90;10.60;100908.00;;;;5008214;27;87537;-64
2023/10/09 02:33:44;;;;;;;1.70;1.60;;;10.60;99.90;10.60;100902.00;;;;5008537;27;90884;-65
2023/10/09 02:36:12;;;;;;;1.80;1.70;;;10.60;99.90;10.60;100907.00;;;;5006123;27;111257;-66
2023/10/09 02:38:42;;;;;;;1.53;1.43;;;10.60;99.90;10.60;100879.00;;;;4999197;27;89098;-66
2023/10/09 02:43:46;;;;;;;2.07;1.17;;;10.60;99.90;10.60;100887.00;;;;5005234;27;88087;-66
2023/10/09 02:46:20;;;;;;;1.57;1.47;;;10.60;99.90;10.60;100862.00;;;;5007940;27;87707;-65
2023/10/09 02:48:52;;;;;;;3.50;1.53;;;10.60;99.90;10.60;100849.00;;;;5006818;27;88814;-66
2023/10/09 02:54:06;;;;;;;2.20;1.53;;;10.60;99.90;10.50;100819.00;;;;5005021;27;87927;-65
2023/10/09 02:56:42;;;;;;;5.13;1.53;;;10.60;99.90;10.50;100800.00;;;;5004965;27;86981;-65
2023/10/09 02:59:08;;;;;;;1.90;1.67;;;10.50;99.90;10.50;100808.00;;;;5006087;27;87898;-65
2023/10/09 03:01:35;;;;;;;2.50;1.70;;;10.50;99.90;10.50;100806.00;;;;5005373;27;117665;-65
2023/10/09 03:04:02;;;;;;;2.30;1.80;;;10.80;99.90;10.50;100800.00;;;;5003833;27;89943;-66
2023/10/09 03:06:31;;;;;;;4.07;1.70;;;10.50;99.90;10.50;100784.00;;;;5004692;27;88109;-66
2023/10/09 03:08:57;;;;;;;2.60;1.67;;;10.50;99.90;10.40;100770.00;;;;5007880;27;88084;-65
2023/10/09 03:11:23;;;;;;;4.77;1.87;;;10.50;99.90;10.40;100769.00;;;;5010101;27;89527;-66
2023/10/09 03:13:50;;;;;;;2.33;1.40;;;10.50;99.90;10.40;100749.00;;;;5004841;27;88385;-67
2023/10/09 03:16:19;;;;;;;1.87;1.50;;;10.50;99.90;10.40;100762.00;;;;5005593;27;88935;-65
2023/10/09 03:18:50;;;;;;;2.00;1.77;;;10.50;99.90;10.40;100763.00;;;;5007323;27;88083;-67
2023/10/09 03:21:16;;;;;;;3.00;1.60;;;10.50;99.90;10.40;100761.00;;;;5010567;27;92359;-67
2023/10/09 03:23:49;;;;;;;1.80;1.67;;;10.50;99.90;10.40;100769.00;;;;5005708;27;87826;-67
2023/10/09 03:26:17;;;;;;;1.70;1.60;;;10.80;99.90;10.40;100794.00;;;;5008541;27;87918;-67
2023/10/09 03:28:47;;;;;;;2.03;1.20;;;10.50;99.90;10.50;100828.00;;;;4988186;27;89092;-68
2023/10/09 03:31:12;;;;;;;1.47;1.07;;;10.50;99.90;10.50;100850.00;;;;4991534;27;89005;-68
2023/10/09 03:33:39;;;;;;;2.40;1.30;;;10.50;99.90;10.50;100856.00;;;;4990464;27;116434;-67
2023/10/09 03:36:09;;;;;;;2.77;1.73;;;10.50;99.90;10.60;100844.00;;;;5007490;27;87786;-65
2023/10/09 03:38:38;;;;;;;1.43;1.30;;;10.60;99.90;10.60;100835.00;;;;4996890;27;87753;-65
2023/10/09 03:41:05;;;;;;;2.67;1.87;;;10.60;99.90;10.60;100831.00;;;;5007677;27;89256;-64
2023/10/09 03:43:40;;;;;;;2.10;1.20;;;10.60;99.90;10.50;100825.00;;;;4983561;27;88619;-64
2023/10/09 03:46:26;;;;;;;2.20;1.37;;;10.60;99.90;10.50;100831.00;;;;4996708;27;87736;-64
2023/10/09 03:48:52;;;;;;;2.13;1.67;;;10.60;99.90;10.50;100826.00;;;;5007064;27;87914;-65
2023/10/09 03:51:21;;;;;;;2.33;1.37;;;10.60;99.90;10.50;100808.00;;;;5004607;27;88908;-64
2023/10/09 03:53:48;;;;;;;1.27;1.17;;;10.60;99.90;10.50;100797.00;;;;5011821;27;88897;-63
2023/10/09 03:56:18;;;;;;;1.40;1.10;;;10.50;99.90;10.40;100796.00;;;;5010978;27;87663;-64
2023/10/09 03:58:46;;;;;;;1.60;1.50;;;10.50;99.90;10.40;100792.00;;;;5007677;27;87985;-64
2023/10/09 04:01:38;;;;;;;2.63;1.43;;;10.40;99.90;10.40;100794.00;;;;4953077;27;88820;-63
2023/10/09 04:04:06;;;;;;;0.87;0.87;;;10.40;99.90;10.30;100783.00;;;;5002967;27;88125;-63
2023/10/09 04:06:33;;;;;;;3.20;1.53;;;10.40;99.90;10.30;100780.00;;;;4992610;27;89469;-64
2023/10/09 04:11:47;;;;;;;1.07;1.00;;;10.40;99.90;10.30;100758.00;;;;4996807;27;90474;-64
2023/10/09 04:14:26;;;;;;;2.07;1.63;;;10.30;99.90;10.30;100755.00;;;;5004008;27;88043;-65
2023/10/09 04:17:03;;;;;;;2.20;2.00;;;10.30;99.90;10.30;100752.00;;;;5008384;27;89188;-64
2023/10/09 04:19:48;;;;;;;4.80;1.87;;;10.30;99.90;10.20;100735.00;;;;5006215;27;89316;-64
2023/10/09 04:22:27;;;;;;;1.57;1.47;;;10.30;99.90;10.20;100728.00;;;;5003554;27;88433;-64
2023/10/09 04:24:53;;;;;;;2.10;1.17;;;10.30;99.90;10.20;100716.00;;;;5002877;27;90684;-63
2023/10/09 04:27:26;;;;;;;1.63;1.37;;;10.30;99.90;10.20;100717.00;;;;5006373;27;95292;-63
2023/10/09 04:29:54;;;;;;;2.20;1.50;;;10.30;99.90;10.20;100693.00;;;;5006187;27;87841;-63
2023/10/09 04:32:20;;;;;;;1.70;1.43;;;10.20;99.90;10.20;100677.00;;;;5006318;27;88653;-63
2023/10/09 04:34:49;;;;;;;2.10;1.63;;;10.20;99.90;10.20;100682.00;;;;5006136;27;88247;-62
2023/10/09 04:39:48;;;;;;;2.13;1.93;;;10.20;99.90;10.10;100672.00;;;;5007275;27;88002;-61
2023/10/09 04:47:38;;;;;;;2.20;1.63;;;10.20;99.90;10.20;100652.00;;;;5005867;27;88870;-63
2023/10/09 04:50:36;;;;;;;1.97;1.80;;;10.20;99.90;10.20;100661.00;;;;5006435;27;88023;-63
2023/10/09 04:55:57;;;;;;;1.90;1.80;;;10.20;99.90;10.20;100637.00;;;;5002811;27;87945;-63
2023/10/09 04:58:25;;;;;;;2.13;1.90;;;10.20;99.90;10.20;100628.00;;;;4998931;27;87901;-62
2023/10/09 05:03:42;;;;;;;1.80;1.47;;;10.20;99.90;10.20;100613.00;;;;4998701;27;87213;-64
2023/10/09 05:09:07;;;;;;;2.93;1.93;;;10.20;99.90;10.20;100593.00;;;;4993338;27;88205;-63
2023/10/09 05:11:53;;;;;;;3.17;1.73;;;10.20;99.90;10.20;100595.00;;;;4998900;27;90040;-64
2023/10/09 05:14:38;;;;;;;2.00;1.87;;;10.20;99.90;10.20;100595.00;;;;4991397;27;89169;-63
2023/10/09 05:17:09;;;;;;;2.07;1.80;;;10.20;99.90;10.20;100578.00;;;;5004792;27;87991;-63
2023/10/09 05:22:37;;;;;;;3.57;2.07;;;10.30;99.90;10.20;100577.00;;;;4993915;27;87864;-63
2023/10/09 05:25:15;;;;;;;7.73;2.37;;;10.30;99.90;10.20;100590.00;;;;5004000;27;89911;-63
2023/10/09 05:27:50;;;;;;;2.33;2.03;;;10.30;99.90;10.30;100586.00;;;;5005712;27;88952;-63
2023/10/09 05:30:25;;;;;;;4.20;2.37;;;10.30;99.90;10.30;100588.00;;;;4999881;27;87127;-63
2023/10/09 05:33:27;;;;;;;3.60;2.30;;;10.30;99.90;10.30;100596.00;;;;5005022;27;87990;-63
2023/10/09 05:36:05;;;;;;;2.80;2.30;;;10.30;99.90;10.30;100603.00;;;;5001749;27;88354;-63
2023/10/09 05:38:35;;;;;;;2.10;1.57;;;10.30;99.90;10.40;100587.00;;;;5004990;27;89450;-63
2023/10/09 05:41:31;;;;;;;2.37;1.90;;;10.40;99.90;10.40;100599.00;;;;5003711;27;88520;-63
2023/10/09 05:46:35;;;;;;;4.33;2.70;;;10.40;99.90;10.50;100583.00;;;;5005198;27;87806;-63
2023/10/09 05:49:09;;;;;;;2.30;1.40;;;10.50;99.90;10.50;100591.00;;;;5006756;27;89301;-63
2023/10/09 05:51:41;;;;;;;2.60;1.90;;;10.50;99.90;10.60;100587.00;;;;5004589;27;88622;-63
2023/10/09 05:58:08;;;;;;;7.30;6.37;;;10.60;99.90;10.60;100576.00;;;;5004828;27;87107;-63
2023/10/09 06:03:23;;;;;;;8.83;5.50;;;10.70;99.90;10.70;100590.00;;;;5002744;27;87925;-63
2023/10/09 06:05:51;;;;;;;5.97;3.43;;;10.80;99.90;10.80;100575.00;;;;5007798;27;88518;-63
2023/10/09 06:11:35;;;;;;;5.40;3.80;;;10.80;99.90;10.90;100601.00;;;;5003530;27;87817;-62
2023/10/09 06:14:02;;;;;;;43.83;31.83;;;10.90;99.90;10.90;100604.00;;;;4974512;27;88970;-63
2023/10/09 06:16:41;;;;;;;12.10;5.83;;;10.90;99.90;11.00;100613.00;;;;5002956;27;87728;-63
2023/10/09 06:19:12;;;;;;;6.90;5.20;;;11.00;99.90;11.00;100629.00;;;;4989893;27;89031;-64
2023/10/09 06:22:30;;;;;;;3.50;3.17;;;11.00;99.90;11.00;100631.00;;;;5005907;27;87949;-63
2023/10/09 06:24:33;;;;;;;6.20;5.60;;;11.10;99.90;11.00;100630.00;;;;5010827;27;86886;-63
2023/10/09 06:29:35;;;;;;;3.83;3.27;;;11.10;99.90;11.10;100631.00;;;;5008329;27;87874;-63
2023/10/09 06:43:36;;;;;;;8.37;5.93;;;11.20;99.90;11.20;100664.00;;;;5009200;27;87998;-63
2023/10/09 06:48:55;;;;;;;14.33;8.90;;;11.20;99.90;11.20;100672.00;;;;5011906;27;88174;-63
2023/10/09 06:59:15;;;;;;;4.40;4.00;;;11.30;99.90;11.20;100659.00;;;;4999016;27;88992;-63
2023/10/09 07:01:47;;;;;;;8.10;5.63;;;11.30;99.90;11.20;100679.00;;;;4999337;27;87966;-63
2023/10/09 07:06:59;;;;;;;15.53;11.97;;;11.30;99.90;11.20;100687.00;;;;5008248;27;88063;-64
2023/10/09 07:09:42;;;;;;;7.97;7.23;;;11.30;99.90;11.30;100692.00;;;;5006126;27;88159;-64
2023/10/09 07:12:20;;;;;;;8.47;7.57;;;11.30;99.90;11.30;100670.00;;;;5009557;27;87827;-64
2023/10/09 07:20:13;;;;;;;2.47;2.20;;;11.30;99.90;11.30;100669.00;;;;5006647;27;87635;-64
2023/10/09 07:22:52;;;;;;;5.50;2.73;;;11.40;99.90;11.30;100674.00;;;;5004262;27;87682;-64
2023/10/09 07:28:18;;;;;;;18.33;14.03;;;11.40;99.90;11.40;100669.00;;;;5007088;27;87787;-64
2023/10/09 07:31:04;;;;;;;34.80;30.33;;;11.40;99.90;11.40;100672.00;;;;5007925;27;87745;-64
2023/10/09 07:36:14;;;;;;;3.97;3.07;;;11.40;99.90;11.30;100694.00;;;;4995529;27;87917;-64
2023/10/09 07:38:44;;;;;;;4.33;3.47;;;11.40;99.90;11.40;100688.00;;;;4994353;27;109187;-64
2023/10/09 07:43:39;;;;;;;4.47;3.13;;;11.40;99.90;11.40;100690.00;;;;4991385;27;111673;-64
2023/10/09 07:48:53;;;;;;;3.30;2.70;;;11.40;99.90;11.40;100679.00;;;;4994438;27;88124;-63
2023/10/09 07:51:23;;;;;;;7.30;4.30;;;11.40;99.90;11.30;100682.00;;;;5009762;27;88998;-65
2023/10/09 07:54:06;;;;;;;5.80;3.77;;;11.40;99.90;11.30;100684.00;;;;5005944;27;87726;-64
2023/10/09 07:56:38;;;;;;;4.33;3.30;;;11.40;99.90;11.30;100699.00;;;;4989795;27;88292;-64
2023/10/09 07:59:14;;;;;;;3.40;3.03;;;11.40;99.90;11.40;100695.00;;;;5001123;27;87877;-64
2023/10/09 08:01:59;;;;;;;6.03;2.87;;;11.40;99.90;11.40;100679.00;;;;5005987;27;90276;-64
2023/10/09 08:04:39;;;;;;;5.00;3.73;;;11.40;99.90;11.40;100689.00;;;;5005933;27;88282;-65
2023/10/09 08:07:19;;;;;;;5.73;2.90;;;11.40;99.90;11.40;100685.00;;;;4993593;27;88557;-65
2023/10/09 08:09:47;;;;;;;5.33;3.43;;;11.40;99.90;11.40;100687.00;;;;5004099;27;86826;-64
2023/10/09 08:12:14;;;;;;;5.40;4.07;;;11.40;99.90;11.40;100687.00;;;;4988588;27;87850;-66
2023/10/09 08:14:43;;;;;;;6.30;3.80;;;11.40;99.90;11.40;100691.00;;;;5006380;27;87725;-65
2023/10/09 08:17:21;;;;;;;7.57;5.23;;;11.40;99.90;11.40;100694.00;;;;4983305;27;115942;-65
2023/10/09 08:20:10;;;;;;;5.57;4.47;;;11.40;99.90;11.50;100695.00;;;;5004595;27;87686;-65
2023/10/09 08:22:43;;;;;;;9.47;8.47;;;11.50;99.90;11.50;100695.00;;;;5006553;27;87832;-65
2023/10/09 08:25:26;;;;;;;4.53;4.13;;;11.50;99.90;11.50;100708.00;;;;5010748;27;87939;-64
2023/10/09 08:28:39;;;;;;;9.30;4.17;;;11.60;99.90;11.50;100704.00;;;;4994286;27;89027;-65
2023/10/09 08:35:55;;;;;;;3.63;3.33;;;11.60;99.90;11.60;100679.00;;;;5008184;27;87244;-64
2023/10/09 08:38:24;;;;;;;4.60;3.27;;;11.60;99.90;11.60;100682.00;;;;4988258;27;87575;-65
2023/10/09 08:40:54;;;;;;;5.77;2.63;;;11.60;99.90;11.70;100678.00;;;;5010161;27;87672;-65
2023/10/09 08:43:21;;;;;;;4.00;3.60;;;11.70;99.90;11.70;100689.00;;;;4989226;27;88860;-65
2023/10/09 08:46:00;;;;;;;4.37;3.27;;;11.70;99.90;11.80;100695.00;;;;5008119;27;117523;-65
2023/10/09 08:48:27;;;;;;;3.87;3.43;;;11.70;99.90;11.80;100702.00;;;;5009301;27;87729;-64
2023/10/09 08:50:55;;;;;;;4.77;4.33;;;11.80;99.90;11.80;100705.00;;;;5011529;27;87604;-65
2023/10/09 08:53:24;;;;;;;5.30;3.37;;;11.80;99.90;11.80;100706.00;;;;4992058;27;89092;-65
2023/10/09 08:55:51;;;;;;;3.23;2.93;;;12.80;99.90;11.80;100704.00;;;;5008368;27;88202;-65
2023/10/09 08:58:24;;;;;;;3.90;2.73;;;11.60;99.90;11.90;100709.00;;;;5013555;27;87628;-67
2023/10/09 09:00:51;;;;;;;3.73;2.70;;;11.90;99.90;11.90;100705.00;;;;5008987;27;87386;-67
2023/10/09 09:03:25;;;;;;;4.97;3.83;;;11.90;99.90;11.90;100711.00;;;;4976058;27;87902;-67
2023/10/09 09:06:02;;;;;;;4.17;3.17;;;11.90;99.90;11.90;100710.00;;;;5010503;27;87522;-67
2023/10/09 09:08:31;;;;;;;3.70;3.10;;;11.90;99.90;12.00;100720.00;;;;4995602;27;88829;-66
2023/10/09 09:14:04;;;;;;;4.20;3.73;;;12.00;99.90;12.00;100720.00;;;;5012021;27;87616;-66
2023/10/09 09:16:36;;;;;;;3.70;3.33;;;12.00;99.90;12.00;100723.00;;;;4995907;27;88167;-66
2023/10/09 09:21:39;;;;;;;3.93;3.57;;;12.00;99.90;12.00;100717.00;;;;4969313;27;104528;-65
2023/10/09 09:24:26;;;;;;;4.93;3.03;;;12.00;99.90;12.00;100697.00;;;;4995889;27;88096;-66
2023/10/09 09:27:09;;;;;;;4.77;3.47;;;12.00;99.90;12.00;100694.00;;;;5008241;27;87416;-65
2023/10/09 09:29:40;;;;;;;4.37;3.60;;;12.00;99.90;12.00;100691.00;;;;4993082;27;87692;-66
2023/10/09 09:32:16;;;;;;;9.47;3.57;;;12.00;99.90;12.00;100690.00;;;;5009242;27;87764;-66
2023/10/09 09:34:54;;;;;;;4.47;2.93;;;12.00;99.90;12.00;100689.00;;;;4979942;27;89562;-65
2023/10/09 09:37:28;;;;;;;4.03;2.90;;;12.00;99.90;12.00;100696.00;;;;5006719;27;89073;-65
2023/10/09 09:39:57;;;;;;;3.33;3.00;;;12.00;99.90;12.00;100678.00;;;;5007609;27;88243;-66
2023/10/09 09:42:27;;;;;;;2.73;2.53;;;12.00;99.90;12.00;100689.00;;;;4972918;27;87358;-66
2023/10/09 09:44:53;;;;;;;2.80;2.60;;;12.00;99.90;12.00;100686.00;;;;4991440;27;87480;-65
2023/10/09 09:47:29;;;;;;;3.13;2.53;;;12.00;99.90;12.10;100684.00;;;;4996434;27;89440;-65
2023/10/09 09:50:11;;;;;;;3.70;2.97;;;12.10;99.90;12.10;100689.00;;;;5008778;27;87579;-66
2023/10/09 09:52:38;;;;;;;6.77;3.53;;;12.00;99.90;12.10;100682.00;;;;5007189;27;88797;-66
2023/10/09 09:55:07;;;;;;;3.30;2.67;;;12.50;99.90;12.10;100677.00;;;;5008186;27;109098;-65
2023/10/09 09:57:39;;;;;;;2.87;2.43;;;12.10;99.90;12.10;100693.00;;;;4992603;27;87680;-65
2023/10/09 10:00:26;;;;;;;3.07;2.37;;;12.10;99.90;12.20;100700.00;;;;4993944;27;88873;-65
2023/10/09 10:02:57;;;;;;;5.27;2.97;;;12.20;99.90;12.20;100691.00;;;;5011497;27;88045;-65
2023/10/09 10:05:29;;;;;;;4.57;3.43;;;12.20;99.90;12.30;100704.00;;;;5004210;27;87847;-64
2023/10/09 10:07:59;;;;;;;2.93;2.53;;;13.60;99.90;12.40;100705.00;;;;5006829;27;88536;-65
2023/10/09 10:11:04;;;;;;;3.20;2.90;;;12.30;99.90;12.30;100712.00;;;;4999357;27;87978;-65
2023/10/09 10:13:42;;;;;;;2.57;2.37;;;12.40;99.90;12.40;100711.00;;;;5008116;27;88312;-65
2023/10/09 10:21:49;;;;;;;3.83;2.47;;;12.40;99.90;12.40;100704.00;;;;4997840;27;87848;-65
2023/10/09 10:24:53;;;;;;;5.43;3.20;;;13.60;99.90;12.40;100698.00;;;;5008704;27;87939;-64
2023/10/09 10:27:24;;;;;;;2.73;2.53;;;12.40;99.90;12.40;100679.00;;;;4998255;27;88629;-64
2023/10/09 10:30:12;;;;;;;4.70;2.37;;;12.40;99.90;12.40;100691.00;;;;5007314;27;88040;-66
2023/10/09 10:32:57;;;;;;;4.67;3.00;;;12.40;99.90;12.40;100691.00;;;;5005021;27;87888;-65
2023/10/09 10:35:45;;;;;;;3.77;2.80;;;12.90;99.90;12.40;100699.00;;;;5008239;27;88062;-66
2023/10/09 10:41:19;;;;;;;3.73;2.77;;;12.40;99.90;12.40;100699.00;;;;5006364;27;87566;-65
2023/10/09 10:49:00;;;;;;;3.37;2.73;;;12.50;99.90;12.50;100688.00;;;;5006274;27;87555;-65
2023/10/09 10:51:37;;;;;;;3.53;2.13;;;12.50;99.90;12.50;100693.00;;;;4996617;27;88340;-66
2023/10/09 10:56:49;;;;;;;2.97;1.90;;;12.50;99.90;12.50;100686.00;;;;5005827;27;87685;-65
2023/10/09 10:59:22;;;;;;;4.40;2.67;;;12.50;99.90;12.50;100684.00;;;;5006700;27;87592;-66
2023/10/09 11:12:38;;;;;;;1.83;1.43;;;12.50;99.90;12.50;100695.00;;;;5006727;27;87126;-64
2023/10/09 11:15:06;;;;;;;3.33;2.13;;;12.50;99.90;12.50;100690.00;;;;5009833;27;87931;-64
2023/10/09 11:17:35;;;;;;;2.53;1.87;;;12.50;99.90;12.50;100684.00;;;;4996138;27;87901;-64
2023/10/09 11:20:22;;;;;;;1.73;1.63;;;12.50;99.90;12.50;100686.00;;;;5004550;27;88935;-64
2023/10/09 11:25:50;;;;;;;1.80;1.70;;;12.50;99.90;12.60;100688.00;;;;5004055;27;88042;-65
2023/10/09 11:28:31;;;;;;;3.07;2.47;;;12.50;99.90;12.60;100678.00;;;;4987543;27;87928;-65
2023/10/09 11:31:15;;;;;;;2.77;2.47;;;12.90;99.90;12.60;100684.00;;;;4988929;27;88082;-65
2023/10/09 11:33:51;;;;;;;2.40;2.20;;;12.60;99.90;12.70;100668.00;;;;5006389;27;87780;-64
2023/10/09 11:36:34;;;;;;;2.43;2.13;;;12.60;99.90;12.70;100672.00;;;;5005279;27;87538;-65
2023/10/09 11:39:17;;;;;;;3.80;2.07;;;12.70;99.90;12.70;100670.00;;;;5007666;27;87328;-64
2023/10/09 11:41:44;;;;;;;2.57;2.00;;;12.70;99.90;12.80;100665.00;;;;5004014;27;87988;-63
2023/10/09 11:44:33;;;;;;;2.70;2.10;;;12.70;99.90;12.80;100665.00;;;;5007500;27;89045;-64
2023/10/09 11:50:17;;;;;;;2.30;2.10;;;12.80;99.90;12.80;100681.00;;;;5003925;27;87873;-64
2023/10/09 11:55:48;;;;;;;2.73;2.20;;;12.80;99.90;12.80;100677.00;;;;5004287;27;87667;-63
2023/10/09 11:58:24;;;;;;;2.20;2.00;;;12.80;99.90;12.80;100679.00;;;;5004947;27;87807;-64
2023/10/09 12:01:04;;;;;;;2.40;2.07;;;12.80;99.90;12.80;100679.00;;;;5013310;27;88187;-64
2023/10/09 12:03:31;;;;;;;2.10;1.67;;;12.80;99.90;12.80;100674.00;;;;4994187;27;87798;-64
2023/10/09 12:06:07;;;;;;;2.60;2.30;;;12.80;99.90;12.80;100676.00;;;;4991949;27;87100;-64
2023/10/09 12:08:34;;;;;;;2.60;2.40;;;12.70;99.90;12.80;100671.00;;;;4986867;27;87681;-65
2023/10/09 12:11:03;;;;;;;2.40;1.73;;;12.80;99.90;12.80;100673.00;;;;4988105;27;87658;-64
2023/10/09 12:13:29;;;;;;;2.20;1.77;;;12.80;99.90;12.70;100663.00;;;;5005244;27;88864;-65
2023/10/09 12:15:57;;;;;;;2.10;1.90;;;12.70;99.90;12.70;100670.00;;;;5005357;27;87363;-65
2023/10/09 12:18:23;;;;;;;1.80;1.23;;;12.70;99.90;12.70;100665.00;;;;5007488;27;87541;-64
2023/10/09 12:20:50;;;;;;;2.40;1.87;;;12.70;99.90;12.70;100668.00;;;;5007354;27;87296;-64
2023/10/09 12:23:21;;;;;;;2.60;2.40;;;12.70;99.90;12.70;100655.00;;;;5005798;27;87598;-65
2023/10/09 12:25:50;;;;;;;2.37;1.97;;;12.70;99.90;12.70;100662.00;;;;5009821;27;87497;-64
2023/10/09 12:28:20;;;;;;;3.77;1.97;;;12.70;99.90;12.70;100655.00;;;;5008149;27;87775;-64
2023/10/09 12:30:50;;;;;;;2.30;2.10;;;13.30;99.90;12.60;100664.00;;;;4995998;27;87214;-64
2023/10/09 12:33:18;;;;;;;2.33;2.13;;;12.60;99.90;12.70;100665.00;;;;5004353;27;88702;-65
2023/10/09 12:35:47;;;;;;;3.20;2.20;;;12.60;99.90;12.70;100664.00;;;;5006068;27;87466;-64
2023/10/09 12:38:18;;;;;;;2.07;1.70;;;12.60;99.90;12.70;100661.00;;;;5004027;27;89061;-64
2023/10/09 12:40:50;;;;;;;2.63;2.27;;;12.70;99.90;12.70;100657.00;;;;5005401;27;87539;-64
2023/10/09 12:43:19;;;;;;;2.80;1.97;;;12.70;99.90;12.70;100653.00;;;;5005623;27;89221;-63
2023/10/09 12:45:48;;;;;;;3.70;2.20;;;12.70;99.90;12.70;100651.00;;;;4986296;27;89243;-64
2023/10/09 12:48:14;;;;;;;1.90;1.80;;;12.70;99.90;12.70;100650.00;;;;5007524;27;87720;-64
2023/10/09 12:50:46;;;;;;;4.77;2.90;;;12.70;99.90;12.70;100644.00;;;;5008367;27;88204;-64
2023/10/09 12:53:17;;;;;;;2.13;1.27;;;12.70;99.90;12.70;100655.00;;;;5004223;27;87772;-64
2023/10/09 12:55:43;;;;;;;3.07;2.17;;;12.70;99.90;12.70;100649.00;;;;4990978;27;87764;-63
2023/10/09 12:58:14;;;;;;;1.80;1.57;;;12.70;99.90;12.80;100648.00;;;;4992884;27;88162;-64
2023/10/09 13:00:49;;;;;;;2.20;2.00;;;12.70;99.90;12.80;100637.00;;;;5009249;27;88142;-65
2023/10/09 13:03:17;;;;;;;2.27;1.87;;;12.80;99.90;12.80;100636.00;;;;5004965;27;88859;-65
2023/10/09 13:05:52;;;;;;;2.40;1.83;;;12.70;99.90;12.70;100633.00;;;;4973205;27;88065;-63
2023/10/09 13:08:31;;;;;;;2.00;1.37;;;12.70;99.90;12.70;100641.00;;;;5003472;27;87990;-64
2023/10/09 13:11:11;;;;;;;2.90;2.43;;;12.70;99.90;12.70;100637.00;;;;5010539;27;87768;-64
2023/10/09 13:13:42;;;;;;;2.37;2.13;;;12.70;99.90;12.70;100637.00;;;;5009156;27;88042;-65
2023/10/09 13:16:23;;;;;;;3.93;2.30;;;12.70;99.90;12.80;100637.00;;;;5009801;27;88459;-64
2023/10/09 13:18:53;;;;;;;5.03;2.13;;;12.80;99.90;12.80;100644.00;;;;4995271;27;88283;-65
2023/10/09 13:21:26;;;;;;;3.47;2.00;;;12.80;99.90;12.90;100632.00;;;;5009198;27;87491;-64
2023/10/09 13:23:54;;;;;;;3.30;2.40;;;13.40;99.90;12.90;100638.00;;;;5010374;27;88010;-64
2023/10/09 13:26:25;;;;;;;3.97;2.63;;;12.80;99.90;12.90;100643.00;;;;5009189;27;89204;-65
2023/10/09 13:28:56;;;;;;;3.67;3.20;;;13.50;99.90;12.90;100638.00;;;;4996271;27;88923;-65
2023/10/09 13:31:27;;;;;;;2.83;2.50;;;12.90;99.90;12.90;100643.00;;;;4990030;27;87971;-65
2023/10/09 13:33:54;;;;;;;3.43;2.33;;;12.90;99.90;12.90;100632.00;;;;5011551;27;87621;-65
2023/10/09 13:36:49;;;;;;;2.50;2.30;;;12.90;99.90;12.80;100626.00;;;;5009657;27;88901;-64
2023/10/09 13:39:24;;;;;;;3.30;2.40;;;12.80;99.90;12.70;100645.00;;;;5006381;27;87694;-64
2023/10/09 13:42:01;;;;;;;2.03;1.77;;;12.70;99.90;12.70;100647.00;;;;5006492;27;87623;-65